AAL7623 KLAX-KSFO
Flight info
| Callsign | AAL7623 |
|---|---|
| Flight time | 0h 51m |
| Altitude | 34000 |
| Route | SUMMR2 STOKD SERFR SERFR4 |
| Aircraft | B77W/H-SDE1E2E3FGHIJ2J3J4J5M1RWXY/LB1D1 |
Departure
| Time | 2026-04-26 01:04 |
|---|---|
| Airport | Los Angeles International Airport (KLAX) |
Arrival
| Time | 2026-04-26 01:55 |
|---|---|
| Airport | San Francisco International Airport (KSFO) |
| Time | Latitude | Longitude | Altitude | Speed | Heading |
|---|---|---|---|---|---|
| 2026-04-26 00:38 | 33.94261 | -118.41126 | 127 ft | 0 kts | 83° |
| 2026-04-26 00:52 | 33.94260 | -118.41129 | 125 ft | 3 kts | 83° |
| 2026-04-26 00:53 | 33.94259 | -118.41161 | 128 ft | 4 kts | 91° |
| 2026-04-26 00:53 | 33.94260 | -118.41194 | 126 ft | 4 kts | 88° |
| 2026-04-26 00:53 | 33.94257 | -118.41218 | 125 ft | 4 kts | 21° |
| 2026-04-26 00:53 | 33.94241 | -118.41218 | 125 ft | 4 kts | 355° |
| 2026-04-26 00:54 | 33.94216 | -118.41216 | 125 ft | 2 kts | 355° |
| 2026-04-26 00:54 | 33.94215 | -118.41216 | 125 ft | 0 kts | 355° |
| 2026-04-26 00:56 | 33.94217 | -118.41216 | 125 ft | 1 kts | 355° |
| 2026-04-26 00:56 | 33.94245 | -118.41219 | 125 ft | 7 kts | 355° |
| 2026-04-26 00:56 | 33.94305 | -118.41225 | 128 ft | 10 kts | 354° |
| 2026-04-26 00:57 | 33.94390 | -118.41238 | 128 ft | 14 kts | 352° |
| 2026-04-26 00:57 | 33.94496 | -118.41255 | 128 ft | 17 kts | 352° |
| 2026-04-26 00:57 | 33.94592 | -118.41270 | 128 ft | 14 kts | 353° |
| 2026-04-26 00:57 | 33.94698 | -118.41286 | 127 ft | 17 kts | 353° |
| 2026-04-26 00:58 | 33.94776 | -118.41278 | 126 ft | 10 kts | 35° |
| 2026-04-26 00:58 | 33.94804 | -118.41190 | 125 ft | 13 kts | 83° |
| 2026-04-26 00:58 | 33.94816 | -118.41072 | 126 ft | 16 kts | 83° |
| 2026-04-26 00:58 | 33.94831 | -118.40931 | 126 ft | 18 kts | 83° |
| 2026-04-26 00:59 | 33.94847 | -118.40772 | 126 ft | 19 kts | 83° |
| 2026-04-26 00:59 | 33.94864 | -118.40611 | 127 ft | 20 kts | 83° |
| 2026-04-26 00:59 | 33.94881 | -118.40441 | 127 ft | 22 kts | 83° |
| 2026-04-26 00:59 | 33.94900 | -118.40256 | 127 ft | 22 kts | 83° |
| 2026-04-26 01:00 | 33.94919 | -118.40076 | 126 ft | 15 kts | 83° |
| 2026-04-26 01:00 | 33.94933 | -118.39964 | 129 ft | 11 kts | 74° |
| 2026-04-26 01:00 | 33.94944 | -118.39941 | 128 ft | 0 kts | 46° |
| 2026-04-26 01:01 | 33.94947 | -118.39938 | 128 ft | 3 kts | 46° |
| 2026-04-26 01:01 | 33.95000 | -118.39917 | 127 ft | 12 kts | 357° |
| 2026-04-26 01:01 | 33.95037 | -118.39970 | 126 ft | 8 kts | 282° |
| 2026-04-26 01:01 | 33.95035 | -118.40012 | 126 ft | 0 kts | 264° |
| 2026-04-26 01:03 | 33.95016 | -118.40203 | 127 ft | 69 kts | 263° |
| 2026-04-26 01:04 | 33.94892 | -118.41290 | 159 ft | 189 kts | 261° |
| 2026-04-26 01:04 | 33.94683 | -118.43104 | 1134 ft | 240 kts | 263° |
| 2026-04-26 01:04 | 33.94483 | -118.45028 | 2314 ft | 229 kts | 263° |
| 2026-04-26 01:04 | 33.94282 | -118.46974 | 3003 ft | 245 kts | 262° |
| 2026-04-26 01:05 | 33.94061 | -118.49019 | 3986 ft | 249 kts | 262° |
| 2026-04-26 01:05 | 33.93840 | -118.51084 | 4732 ft | 251 kts | 262° |
| 2026-04-26 01:05 | 33.93614 | -118.53196 | 5016 ft | 257 kts | 262° |
| 2026-04-26 01:05 | 33.93387 | -118.55348 | 4998 ft | 258 kts | 262° |
| 2026-04-26 01:06 | 33.93160 | -118.57487 | 5059 ft | 255 kts | 262° |
| 2026-04-26 01:06 | 33.92940 | -118.59579 | 5450 ft | 249 kts | 262° |
| 2026-04-26 01:06 | 33.92722 | -118.61672 | 6046 ft | 255 kts | 262° |
| 2026-04-26 01:06 | 33.92505 | -118.63787 | 6598 ft | 260 kts | 262° |
| 2026-04-26 01:07 | 33.92318 | -118.65946 | 7130 ft | 259 kts | 268° |
| 2026-04-26 01:07 | 33.92369 | -118.68122 | 7692 ft | 261 kts | 272° |
| 2026-04-26 01:07 | 33.92426 | -118.70300 | 8316 ft | 260 kts | 269° |
| 2026-04-26 01:07 | 33.92408 | -118.72478 | 8995 ft | 260 kts | 266° |
| 2026-04-26 01:08 | 33.92319 | -118.74657 | 9682 ft | 262 kts | 265° |
| 2026-04-26 01:08 | 33.92182 | -118.76859 | 10339 ft | 265 kts | 264° |
| 2026-04-26 01:08 | 33.92019 | -118.79084 | 10980 ft | 268 kts | 263° |
| 2026-04-26 01:08 | 33.91846 | -118.81325 | 11646 ft | 269 kts | 263° |
| 2026-04-26 01:09 | 33.91681 | -118.83574 | 12354 ft | 270 kts | 265° |
| 2026-04-26 01:09 | 33.91692 | -118.85808 | 13082 ft | 270 kts | 270° |
| 2026-04-26 01:09 | 33.91785 | -118.88074 | 13825 ft | 271 kts | 270° |
| 2026-04-26 01:09 | 33.91881 | -118.90340 | 14482 ft | 273 kts | 269° |
| 2026-04-26 01:10 | 33.91966 | -118.92647 | 15162 ft | 276 kts | 269° |
| 2026-04-26 01:10 | 33.92041 | -118.94976 | 15864 ft | 281 kts | 268° |
| 2026-04-26 01:10 | 33.92111 | -118.97357 | 16597 ft | 288 kts | 268° |
| 2026-04-26 01:10 | 33.92182 | -118.99791 | 16997 ft | 290 kts | 268° |
| 2026-04-26 01:11 | 33.92556 | -119.02150 | 16992 ft | 301 kts | 286° |
| 2026-04-26 01:11 | 33.93561 | -119.04402 | 17027 ft | 307 kts | 296° |
| 2026-04-26 01:11 | 33.94728 | -119.06613 | 17540 ft | 319 kts | 296° |
| 2026-04-26 01:11 | 33.95530 | -119.08123 | 18064 ft | 327 kts | 296° |
| 2026-04-26 01:12 | 33.96783 | -119.10503 | 18518 ft | 348 kts | 296° |
| 2026-04-26 01:12 | 33.98113 | -119.13068 | 18719 ft | 374 kts | 296° |
| 2026-04-26 01:12 | 33.99515 | -119.15780 | 19279 ft | 387 kts | 296° |
| 2026-04-26 01:12 | 34.01028 | -119.18483 | 19979 ft | 399 kts | 303° |
| 2026-04-26 01:13 | 34.03157 | -119.20739 | 20710 ft | 415 kts | 319° |
| 2026-04-26 01:13 | 34.05568 | -119.22746 | 21368 ft | 424 kts | 319° |
| 2026-04-26 01:13 | 34.07987 | -119.24754 | 22207 ft | 429 kts | 319° |
| 2026-04-26 01:13 | 34.10441 | -119.26804 | 23244 ft | 428 kts | 319° |
| 2026-04-26 01:14 | 34.12893 | -119.28878 | 24021 ft | 432 kts | 318° |
| 2026-04-26 01:14 | 34.15361 | -119.30989 | 24648 ft | 438 kts | 318° |
| 2026-04-26 01:14 | 34.17865 | -119.33144 | 25293 ft | 443 kts | 317° |
| 2026-04-26 01:14 | 34.20388 | -119.35320 | 25971 ft | 447 kts | 317° |
| 2026-04-26 01:15 | 34.22929 | -119.37515 | 26597 ft | 452 kts | 318° |
| 2026-04-26 01:15 | 34.25505 | -119.39741 | 27154 ft | 458 kts | 317° |
| 2026-04-26 01:15 | 34.28112 | -119.41995 | 27739 ft | 462 kts | 317° |
| 2026-04-26 01:15 | 34.30735 | -119.44262 | 28359 ft | 466 kts | 317° |
| 2026-04-26 01:16 | 34.33351 | -119.46526 | 28931 ft | 470 kts | 317° |
| 2026-04-26 01:16 | 34.36018 | -119.48836 | 29499 ft | 473 kts | 317° |
| 2026-04-26 01:16 | 34.38699 | -119.51159 | 30146 ft | 474 kts | 317° |
| 2026-04-26 01:16 | 34.41367 | -119.53490 | 30815 ft | 471 kts | 315° |
| 2026-04-26 01:17 | 34.43849 | -119.56020 | 31573 ft | 462 kts | 310° |
| 2026-04-26 01:17 | 34.46152 | -119.58702 | 32315 ft | 457 kts | 308° |
| 2026-04-26 01:17 | 34.48378 | -119.61437 | 32918 ft | 455 kts | 308° |
| 2026-04-26 01:17 | 34.50590 | -119.64186 | 33467 ft | 455 kts | 308° |
| 2026-04-26 01:18 | 34.52805 | -119.66911 | 33934 ft | 455 kts | 308° |
| 2026-04-26 01:18 | 34.55065 | -119.69661 | 33920 ft | 462 kts | 309° |
| 2026-04-26 01:18 | 34.59602 | -119.75082 | 33943 ft | 454 kts | 309° |
| 2026-04-26 01:19 | 34.64125 | -119.80439 | 33938 ft | 454 kts | 309° |
| 2026-04-26 01:19 | 34.68655 | -119.85809 | 33950 ft | 456 kts | 309° |
| 2026-04-26 01:20 | 34.73168 | -119.91173 | 33960 ft | 457 kts | 309° |
| 2026-04-26 01:20 | 34.77719 | -119.96593 | 33963 ft | 459 kts | 309° |
| 2026-04-26 01:21 | 34.82226 | -120.01967 | 33959 ft | 459 kts | 309° |
| 2026-04-26 01:21 | 34.86789 | -120.07416 | 33964 ft | 458 kts | 309° |
| 2026-04-26 01:22 | 34.91335 | -120.12856 | 33995 ft | 457 kts | 310° |
| 2026-04-26 01:22 | 34.95877 | -120.18300 | 33979 ft | 457 kts | 310° |
| 2026-04-26 01:23 | 35.00379 | -120.23706 | 33961 ft | 457 kts | 310° |
| 2026-04-26 01:23 | 35.04899 | -120.29141 | 33977 ft | 456 kts | 310° |
| 2026-04-26 01:24 | 35.09423 | -120.34591 | 33977 ft | 456 kts | 310° |
| 2026-04-26 01:24 | 35.13942 | -120.40044 | 33993 ft | 457 kts | 310° |
| 2026-04-26 01:25 | 35.18471 | -120.45517 | 33972 ft | 457 kts | 310° |
| 2026-04-26 01:25 | 35.22990 | -120.50985 | 33956 ft | 456 kts | 310° |
| 2026-04-26 01:26 | 35.27499 | -120.56455 | 33950 ft | 456 kts | 311° |
| 2026-04-26 01:26 | 35.31979 | -120.61897 | 33957 ft | 456 kts | 311° |
| 2026-04-26 01:27 | 35.36488 | -120.67382 | 33960 ft | 456 kts | 311° |
| 2026-04-26 01:27 | 35.40989 | -120.72865 | 33968 ft | 456 kts | 311° |
| 2026-04-26 01:28 | 35.45498 | -120.78374 | 33960 ft | 458 kts | 311° |
| 2026-04-26 01:28 | 35.50211 | -120.83690 | 33974 ft | 463 kts | 318° |
| 2026-04-26 01:29 | 35.55347 | -120.88436 | 33973 ft | 465 kts | 319° |
| 2026-04-26 01:29 | 35.60555 | -120.93197 | 33971 ft | 467 kts | 319° |
| 2026-04-26 01:30 | 35.65746 | -120.97998 | 33977 ft | 466 kts | 319° |
| 2026-04-26 01:30 | 35.70848 | -121.02752 | 33964 ft | 465 kts | 319° |
| 2026-04-26 01:31 | 35.76005 | -121.07570 | 33958 ft | 464 kts | 320° |
| 2026-04-26 01:31 | 35.81120 | -121.12356 | 33958 ft | 465 kts | 319° |
| 2026-04-26 01:32 | 35.83676 | -121.14747 | 33946 ft | 454 kts | 319° |
| 2026-04-26 01:32 | 35.86152 | -121.17063 | 33935 ft | 440 kts | 319° |
| 2026-04-26 01:32 | 35.88562 | -121.19321 | 33742 ft | 431 kts | 319° |
| 2026-04-26 01:32 | 35.90929 | -121.21543 | 33354 ft | 426 kts | 319° |
| 2026-04-26 01:33 | 35.93289 | -121.23765 | 32803 ft | 425 kts | 320° |
| 2026-04-26 01:33 | 35.95641 | -121.25979 | 32302 ft | 424 kts | 320° |
| 2026-04-26 01:33 | 35.97978 | -121.28180 | 31931 ft | 419 kts | 320° |
| 2026-04-26 01:33 | 36.00279 | -121.30347 | 31558 ft | 415 kts | 321° |
| 2026-04-26 01:34 | 36.02566 | -121.32502 | 31169 ft | 412 kts | 321° |
| 2026-04-26 01:34 | 36.04805 | -121.34614 | 30761 ft | 409 kts | 321° |
| 2026-04-26 01:34 | 36.07064 | -121.36733 | 30345 ft | 407 kts | 322° |
| 2026-04-26 01:34 | 36.09396 | -121.38699 | 29863 ft | 406 kts | 327° |
| 2026-04-26 01:35 | 36.11792 | -121.40556 | 29300 ft | 405 kts | 328° |
| 2026-04-26 01:35 | 36.14194 | -121.42369 | 28867 ft | 402 kts | 328° |
| 2026-04-26 01:35 | 36.16570 | -121.44166 | 28522 ft | 397 kts | 328° |
| 2026-04-26 01:35 | 36.18916 | -121.45957 | 28029 ft | 396 kts | 328° |
| 2026-04-26 01:36 | 36.21247 | -121.47755 | 27571 ft | 394 kts | 328° |
| 2026-04-26 01:36 | 36.23565 | -121.49555 | 27123 ft | 392 kts | 328° |
| 2026-04-26 01:36 | 36.25842 | -121.51331 | 26793 ft | 388 kts | 328° |
| 2026-04-26 01:37 | 36.30366 | -121.54870 | 26124 ft | 380 kts | 328° |
| 2026-04-26 01:37 | 36.32598 | -121.56619 | 25704 ft | 379 kts | 328° |
| 2026-04-26 01:37 | 36.34823 | -121.58362 | 25277 ft | 378 kts | 328° |
| 2026-04-26 01:37 | 36.37056 | -121.60113 | 24893 ft | 376 kts | 328° |
| 2026-04-26 01:38 | 36.39264 | -121.61844 | 24490 ft | 375 kts | 328° |
| 2026-04-26 01:38 | 36.41462 | -121.63570 | 24172 ft | 372 kts | 328° |
| 2026-04-26 01:38 | 36.43615 | -121.65261 | 23837 ft | 369 kts | 327° |
| 2026-04-26 01:38 | 36.45802 | -121.66980 | 23507 ft | 366 kts | 327° |
| 2026-04-26 01:39 | 36.47916 | -121.68643 | 23123 ft | 363 kts | 327° |
| 2026-04-26 01:39 | 36.50048 | -121.70321 | 22735 ft | 361 kts | 327° |
| 2026-04-26 01:39 | 36.52159 | -121.71986 | 22380 ft | 357 kts | 326° |
| 2026-04-26 01:39 | 36.54260 | -121.73645 | 22020 ft | 354 kts | 326° |
| 2026-04-26 01:40 | 36.56328 | -121.75279 | 21616 ft | 352 kts | 326° |
| 2026-04-26 01:40 | 36.58391 | -121.76912 | 21276 ft | 349 kts | 326° |
| 2026-04-26 01:40 | 36.60430 | -121.78528 | 20936 ft | 346 kts | 326° |
| 2026-04-26 01:40 | 36.62453 | -121.80132 | 20624 ft | 343 kts | 326° |
| 2026-04-26 01:41 | 36.64462 | -121.81725 | 20227 ft | 342 kts | 326° |
| 2026-04-26 01:41 | 36.66465 | -121.83313 | 19891 ft | 339 kts | 326° |
| 2026-04-26 01:41 | 36.68421 | -121.84866 | 19573 ft | 337 kts | 326° |
| 2026-04-26 01:41 | 36.70402 | -121.86439 | 19184 ft | 336 kts | 326° |
| 2026-04-26 01:42 | 36.72408 | -121.88034 | 18594 ft | 355 kts | 326° |
| 2026-04-26 01:42 | 36.74651 | -121.89635 | 17903 ft | 381 kts | 336° |
| 2026-04-26 01:42 | 36.77221 | -121.90526 | 17159 ft | 386 kts | 347° |
| 2026-04-26 01:42 | 36.79861 | -121.91178 | 16449 ft | 387 kts | 348° |
| 2026-04-26 01:43 | 36.82515 | -121.91831 | 15744 ft | 389 kts | 348° |
| 2026-04-26 01:43 | 36.85174 | -121.92518 | 15055 ft | 391 kts | 348° |
| 2026-04-26 01:43 | 36.87836 | -121.93239 | 14407 ft | 391 kts | 348° |
| 2026-04-26 01:43 | 36.90455 | -121.93968 | 13771 ft | 390 kts | 348° |
| 2026-04-26 01:44 | 36.93105 | -121.94709 | 13045 ft | 389 kts | 348° |
| 2026-04-26 01:44 | 36.95738 | -121.95466 | 12346 ft | 386 kts | 346° |
| 2026-04-26 01:44 | 36.98314 | -121.96384 | 11652 ft | 384 kts | 342° |
| 2026-04-26 01:44 | 37.00841 | -121.97390 | 11036 ft | 380 kts | 341° |
| 2026-04-26 01:45 | 37.03343 | -121.98409 | 10468 ft | 376 kts | 341° |
| 2026-04-26 01:45 | 37.05819 | -121.99410 | 9905 ft | 373 kts | 341° |
| 2026-04-26 01:45 | 37.08210 | -122.00364 | 9497 ft | 366 kts | 341° |
| 2026-04-26 01:45 | 37.10608 | -122.01311 | 9432 ft | 359 kts | 341° |
| 2026-04-26 01:46 | 37.13047 | -122.02272 | 9452 ft | 383 kts | 341° |
| 2026-04-26 01:46 | 37.15603 | -122.03276 | 9569 ft | 375 kts | 341° |
| 2026-04-26 01:46 | 37.18040 | -122.04227 | 9390 ft | 361 kts | 341° |
| 2026-04-26 01:46 | 37.20423 | -122.05159 | 8821 ft | 359 kts | 341° |
| 2026-04-26 01:47 | 37.22776 | -122.06081 | 8256 ft | 356 kts | 341° |
| 2026-04-26 01:47 | 37.25107 | -122.06994 | 8047 ft | 344 kts | 341° |
| 2026-04-26 01:47 | 37.27349 | -122.07873 | 8002 ft | 328 kts | 340° |
| 2026-04-26 01:47 | 37.29497 | -122.08721 | 7722 ft | 321 kts | 340° |
| 2026-04-26 01:48 | 37.31578 | -122.09540 | 7551 ft | 311 kts | 340° |
| 2026-04-26 01:48 | 37.33603 | -122.10340 | 7471 ft | 299 kts | 340° |
| 2026-04-26 01:48 | 37.35549 | -122.11107 | 7381 ft | 287 kts | 340° |
| 2026-04-26 01:48 | 37.37424 | -122.11846 | 7271 ft | 277 kts | 341° |
| 2026-04-26 01:49 | 37.39252 | -122.12505 | 7131 ft | 269 kts | 342° |
| 2026-04-26 01:49 | 37.41043 | -122.13108 | 6892 ft | 265 kts | 343° |
| 2026-04-26 01:49 | 37.42824 | -122.13708 | 6432 ft | 269 kts | 342° |
| 2026-04-26 01:49 | 37.44653 | -122.14259 | 5931 ft | 272 kts | 345° |
| 2026-04-26 01:50 | 37.46468 | -122.14832 | 5494 ft | 261 kts | 341° |
| 2026-04-26 01:50 | 37.48176 | -122.15467 | 4954 ft | 252 kts | 340° |
| 2026-04-26 01:50 | 37.49799 | -122.16056 | 4707 ft | 230 kts | 340° |
| 2026-04-26 01:50 | 37.51257 | -122.16567 | 4530 ft | 207 kts | 341° |
| 2026-04-26 01:51 | 37.52569 | -122.17080 | 4203 ft | 189 kts | 329° |
| 2026-04-26 01:51 | 37.53446 | -122.18149 | 3717 ft | 174 kts | 299° |
| 2026-04-26 01:51 | 37.54113 | -122.19388 | 3229 ft | 166 kts | 301° |
| 2026-04-26 01:51 | 37.54742 | -122.20614 | 3071 ft | 169 kts | 297° |
| 2026-04-26 01:52 | 37.55320 | -122.21903 | 3020 ft | 167 kts | 295° |
| 2026-04-26 01:52 | 37.55868 | -122.23190 | 3008 ft | 167 kts | 294° |
| 2026-04-26 01:52 | 37.56409 | -122.24474 | 2856 ft | 164 kts | 294° |
| 2026-04-26 01:52 | 37.56937 | -122.25735 | 2349 ft | 161 kts | 294° |
| 2026-04-26 01:53 | 37.57462 | -122.26991 | 2146 ft | 164 kts | 294° |
| 2026-04-26 01:53 | 37.57999 | -122.28269 | 2012 ft | 163 kts | 294° |
| 2026-04-26 01:53 | 37.58518 | -122.29507 | 1979 ft | 156 kts | 294° |
| 2026-04-26 01:53 | 37.59031 | -122.30675 | 1480 ft | 150 kts | 296° |
| 2026-04-26 01:54 | 37.59532 | -122.31808 | 1009 ft | 144 kts | 296° |
| 2026-04-26 01:54 | 37.59993 | -122.32872 | 573 ft | 132 kts | 295° |
| 2026-04-26 01:54 | 37.60401 | -122.33885 | 391 ft | 129 kts | 292° |
| 2026-04-26 01:54 | 37.60794 | -122.34907 | 226 ft | 131 kts | 294° |
| 2026-04-26 01:55 | 37.61213 | -122.35939 | 55 ft | 132 kts | 295° |
| 2026-04-26 01:55 | 37.61606 | -122.36886 | 26 ft | 110 kts | 297° |
| 2026-04-26 01:55 | 37.61892 | -122.37563 | 25 ft | 65 kts | 298° |
| 2026-04-26 01:55 | 37.62059 | -122.37955 | 27 ft | 37 kts | 298° |
| 2026-04-26 01:56 | 37.62160 | -122.38193 | 27 ft | 15 kts | 297° |
| 2026-04-26 01:56 | 37.62165 | -122.38284 | 29 ft | 8 kts | 238° |
| 2026-04-26 01:56 | 37.62158 | -122.38295 | 30 ft | 0 kts | 229° |
| 2026-04-26 01:56 | 37.62115 | -122.38318 | 29 ft | 8 kts | 162° |
| 2026-04-26 01:57 | 37.62071 | -122.38271 | 28 ft | 10 kts | 123° |
| 2026-04-26 01:57 | 37.62022 | -122.38162 | 27 ft | 19 kts | 118° |
| 2026-04-26 01:57 | 37.61955 | -122.38021 | 29 ft | 17 kts | 140° |
| 2026-04-26 01:57 | 37.61836 | -122.37977 | 28 ft | 20 kts | 158° |
| 2026-04-26 01:58 | 37.61681 | -122.37962 | 23 ft | 25 kts | 195° |
| 2026-04-26 01:58 | 37.61525 | -122.38058 | 18 ft | 23 kts | 208° |
| 2026-04-26 01:58 | 37.61382 | -122.38153 | 19 ft | 20 kts | 207° |
| 2026-04-26 01:58 | 37.61249 | -122.38240 | 21 ft | 18 kts | 207° |
| 2026-04-26 01:59 | 37.61138 | -122.38315 | 25 ft | 20 kts | 207° |
| 2026-04-26 01:59 | 37.61006 | -122.38411 | 26 ft | 20 kts | 215° |
| 2026-04-26 01:59 | 37.60916 | -122.38482 | 25 ft | 12 kts | 204° |
| 2026-04-26 01:59 | 37.60889 | -122.38547 | 26 ft | 6 kts | 271° |
| 2026-04-26 02:00 | 37.60908 | -122.38613 | 22 ft | 10 kts | 296° |
| 2026-04-26 02:00 | 37.60948 | -122.38712 | 26 ft | 15 kts | 298° |
| 2026-04-26 02:00 | 37.61004 | -122.38837 | 23 ft | 15 kts | 305° |
| 2026-04-26 02:00 | 37.61063 | -122.38886 | 24 ft | 17 kts | 356° |
| 2026-04-26 02:01 | 37.61159 | -122.38842 | 25 ft | 15 kts | 28° |
| 2026-04-26 02:01 | 37.61252 | -122.38793 | 23 ft | 4 kts | 342° |